sensor_id;sensor_type;location;lat;lon;timestamp;temperature;humidity
1766;DHT22;880;52.452;8.656;2023-08-06T00:02:16;15.60;99.90
1766;DHT22;880;52.452;8.656;2023-08-06T00:04:43;15.70;99.90
1766;DHT22;880;52.452;8.656;2023-08-06T00:07:10;15.70;99.90
1766;DHT22;880;52.452;8.656;2023-08-06T00:09:37;15.70;99.90
1766;DHT22;880;52.452;8.656;2023-08-06T00:12:04;15.60;99.90
1766;DHT22;880;52.452;8.656;2023-08-06T00:14:31;15.50;99.90
1766;DHT22;880;52.452;8.656;2023-08-06T00:16:58;15.50;99.90
1766;DHT22;880;52.452;8.656;2023-08-06T00:19:26;15.50;99.90
1766;DHT22;880;52.452;8.656;2023-08-06T00:21:53;15.50;99.90
1766;DHT22;880;52.452;8.656;2023-08-06T00:24:20;15.60;99.90
1766;DHT22;880;52.452;8.656;2023-08-06T00:26:47;15.60;99.90
1766;DHT22;880;52.452;8.656;2023-08-06T00:29:14;15.60;99.90
1766;DHT22;880;52.452;8.656;2023-08-06T00:31:41;15.70;99.90
1766;DHT22;880;52.452;8.656;2023-08-06T00:34:08;15.70;99.90
1766;DHT22;880;52.452;8.656;2023-08-06T00:36:35;15.80;99.90
1766;DHT22;880;52.452;8.656;2023-08-06T00:39:02;15.80;99.90
1766;DHT22;880;52.452;8.656;2023-08-06T00:41:29;15.80;99.90
1766;DHT22;880;52.452;8.656;2023-08-06T00:43:56;15.80;99.90
1766;DHT22;880;52.452;8.656;2023-08-06T00:46:23;15.80;99.90
1766;DHT22;880;52.452;8.656;2023-08-06T00:48:51;15.80;99.90
1766;DHT22;880;52.452;8.656;2023-08-06T00:51:19;15.90;99.90
1766;DHT22;880;52.452;8.656;2023-08-06T00:53:47;15.80;99.90
1766;DHT22;880;52.452;8.656;2023-08-06T00:56:15;15.80;99.90
1766;DHT22;880;52.452;8.656;2023-08-06T00:58:45;15.90;99.90
1766;DHT22;880;52.452;8.656;2023-08-06T01:01:13;15.90;99.90
1766;DHT22;880;52.452;8.656;2023-08-06T01:03:40;15.90;99.90
1766;DHT22;880;52.452;8.656;2023-08-06T01:06:07;16.00;99.90
1766;DHT22;880;52.452;8.656;2023-08-06T01:09:01;15.90;99.90
1766;DHT22;880;52.452;8.656;2023-08-06T01:11:50;16.00;99.90
1766;DHT22;880;52.452;8.656;2023-08-06T01:15:18;16.00;99.90
1766;DHT22;880;52.452;8.656;2023-08-06T01:17:48;15.90;99.90
1766;DHT22;880;52.452;8.656;2023-08-06T01:20:15;15.70;99.90
1766;DHT22;880;52.452;8.656;2023-08-06T01:22:42;15.70;99.90
1766;DHT22;880;52.452;8.656;2023-08-06T01:25:09;15.60;99.90
1766;DHT22;880;52.452;8.656;2023-08-06T01:30:25;15.60;99.90
1766;DHT22;880;52.452;8.656;2023-08-06T01:32:58;15.60;99.90
1766;DHT22;880;52.452;8.656;2023-08-06T01:35:28;15.60;99.90
1766;DHT22;880;52.452;8.656;2023-08-06T01:38:02;15.60;99.90
1766;DHT22;880;52.452;8.656;2023-08-06T01:40:30;15.60;99.90
1766;DHT22;880;52.452;8.656;2023-08-06T01:42:57;15.60;99.90
1766;DHT22;880;52.452;8.656;2023-08-06T01:45:24;15.50;99.90
1766;DHT22;880;52.452;8.656;2023-08-06T01:47:51;15.60;99.90
1766;DHT22;880;52.452;8.656;2023-08-06T01:50:18;15.60;99.90
1766;DHT22;880;52.452;8.656;2023-08-06T01:52:45;15.50;99.90
1766;DHT22;880;52.452;8.656;2023-08-06T01:55:12;15.50;99.90
1766;DHT22;880;52.452;8.656;2023-08-06T01:57:42;15.50;99.90
1766;DHT22;880;52.452;8.656;2023-08-06T02:00:10;15.50;99.90
1766;DHT22;880;52.452;8.656;2023-08-06T02:02:40;15.40;99.90
1766;DHT22;880;52.452;8.656;2023-08-06T02:05:09;15.40;99.90
1766;DHT22;880;52.452;8.656;2023-08-06T02:07:39;15.30;99.90
1766;DHT22;880;52.452;8.656;2023-08-06T02:10:06;15.30;99.90
1766;DHT22;880;52.452;8.656;2023-08-06T02:12:34;15.30;99.90
1766;DHT22;880;52.452;8.656;2023-08-06T02:15:01;15.20;99.90
1766;DHT22;880;52.452;8.656;2023-08-06T02:17:28;15.20;99.90
1766;DHT22;880;52.452;8.656;2023-08-06T02:19:55;15.10;99.90
1766;DHT22;880;52.452;8.656;2023-08-06T02:22:22;15.10;99.90
1766;DHT22;880;52.452;8.656;2023-08-06T02:24:50;15.10;99.90
1766;DHT22;880;52.452;8.656;2023-08-06T02:27:17;15.10;99.90
1766;DHT22;880;52.452;8.656;2023-08-06T02:29:44;15.20;99.90
1766;DHT22;880;52.452;8.656;2023-08-06T02:32:11;15.20;99.90
1766;DHT22;880;52.452;8.656;2023-08-06T02:34:38;15.20;99.90
1766;DHT22;880;52.452;8.656;2023-08-06T02:37:05;15.20;99.90
1766;DHT22;880;52.452;8.656;2023-08-06T02:39:32;15.20;99.90
1766;DHT22;880;52.452;8.656;2023-08-06T02:42:01;15.20;99.90
1766;DHT22;880;52.452;8.656;2023-08-06T02:44:30;15.20;99.90
1766;DHT22;880;52.452;8.656;2023-08-06T02:46:57;15.20;99.90
1766;DHT22;880;52.452;8.656;2023-08-06T02:49:25;15.20;99.90
1766;DHT22;880;52.452;8.656;2023-08-06T02:51:52;15.20;99.90
1766;DHT22;880;52.452;8.656;2023-08-06T02:54:19;15.20;99.90
1766;DHT22;880;52.452;8.656;2023-08-06T02:56:46;15.20;99.90
1766;DHT22;880;52.452;8.656;2023-08-06T02:59:23;15.20;99.90
1766;DHT22;880;52.452;8.656;2023-08-06T03:02:02;15.20;99.90
1766;DHT22;880;52.452;8.656;2023-08-06T03:04:39;15.20;99.90
1766;DHT22;880;52.452;8.656;2023-08-06T03:07:08;15.10;99.90
1766;DHT22;880;52.452;8.656;2023-08-06T03:09:43;15.10;99.90
1766;DHT22;880;52.452;8.656;2023-08-06T03:12:11;15.10;99.90
1766;DHT22;880;52.452;8.656;2023-08-06T03:14:38;15.10;99.90
1766;DHT22;880;52.452;8.656;2023-08-06T03:17:07;15.10;99.90
1766;DHT22;880;52.452;8.656;2023-08-06T03:19:35;15.00;99.90
1766;DHT22;880;52.452;8.656;2023-08-06T03:22:03;15.00;99.90
1766;DHT22;880;52.452;8.656;2023-08-06T03:24:33;15.00;99.90
1766;DHT22;880;52.452;8.656;2023-08-06T03:27:00;15.00;99.90
1766;DHT22;880;52.452;8.656;2023-08-06T03:29:29;14.90;99.90
1766;DHT22;880;52.452;8.656;2023-08-06T03:31:59;14.90;99.90
1766;DHT22;880;52.452;8.656;2023-08-06T03:34:26;14.90;99.90
1766;DHT22;880;52.452;8.656;2023-08-06T03:36:54;14.90;99.90
1766;DHT22;880;52.452;8.656;2023-08-06T03:39:21;14.80;99.90
1766;DHT22;880;52.452;8.656;2023-08-06T03:41:48;14.80;99.90
1766;DHT22;880;52.452;8.656;2023-08-06T03:44:15;14.70;99.90
1766;DHT22;880;52.452;8.656;2023-08-06T03:46:42;14.80;99.90
1766;DHT22;880;52.452;8.656;2023-08-06T03:49:10;14.70;99.90
1766;DHT22;880;52.452;8.656;2023-08-06T03:51:37;14.80;99.90
1766;DHT22;880;52.452;8.656;2023-08-06T03:54:04;14.70;99.90
1766;DHT22;880;52.452;8.656;2023-08-06T03:56:31;14.80;99.90
1766;DHT22;880;52.452;8.656;2023-08-06T03:58:58;14.70;99.90
1766;DHT22;880;52.452;8.656;2023-08-06T04:01:26;14.80;99.90
1766;DHT22;880;52.452;8.656;2023-08-06T04:03:53;14.70;99.90
1766;DHT22;880;52.452;8.656;2023-08-06T04:06:20;14.70;99.90
1766;DHT22;880;52.452;8.656;2023-08-06T04:08:47;14.80;99.90
1766;DHT22;880;52.452;8.656;2023-08-06T04:11:14;14.80;99.90
1766;DHT22;880;52.452;8.656;2023-08-06T04:13:44;14.80;99.90
1766;DHT22;880;52.452;8.656;2023-08-06T04:16:11;14.80;99.90
1766;DHT22;880;52.452;8.656;2023-08-06T04:18:40;14.70;99.90
1766;DHT22;880;52.452;8.656;2023-08-06T04:21:07;14.70;99.90
1766;DHT22;880;52.452;8.656;2023-08-06T04:23:34;14.70;99.90
1766;DHT22;880;52.452;8.656;2023-08-06T04:26:05;14.70;99.90
1766;DHT22;880;52.452;8.656;2023-08-06T04:28:34;14.60;99.90
1766;DHT22;880;52.452;8.656;2023-08-06T04:31:01;14.60;99.90
1766;DHT22;880;52.452;8.656;2023-08-06T04:33:31;14.60;99.90
1766;DHT22;880;52.452;8.656;2023-08-06T04:36:02;14.60;99.90
1766;DHT22;880;52.452;8.656;2023-08-06T04:38:29;14.60;99.90
1766;DHT22;880;52.452;8.656;2023-08-06T04:40:58;14.60;99.90
1766;DHT22;880;52.452;8.656;2023-08-06T04:43:25;14.60;99.90
1766;DHT22;880;52.452;8.656;2023-08-06T04:45:54;14.60;99.90
1766;DHT22;880;52.452;8.656;2023-08-06T04:48:22;14.60;99.90
1766;DHT22;880;52.452;8.656;2023-08-06T04:50:50;14.60;99.90
1766;DHT22;880;52.452;8.656;2023-08-06T04:53:17;14.60;99.90
1766;DHT22;880;52.452;8.656;2023-08-06T04:55:44;14.60;99.90
1766;DHT22;880;52.452;8.656;2023-08-06T04:58:13;14.60;99.90
1766;DHT22;880;52.452;8.656;2023-08-06T05:00:40;14.60;99.90
1766;DHT22;880;52.452;8.656;2023-08-06T05:03:16;14.60;99.90
1766;DHT22;880;52.452;8.656;2023-08-06T05:05:43;14.60;99.90
1766;DHT22;880;52.452;8.656;2023-08-06T05:08:14;14.60;99.90
1766;DHT22;880;52.452;8.656;2023-08-06T05:10:45;14.60;99.90
1766;DHT22;880;52.452;8.656;2023-08-06T05:13:12;14.60;99.90
1766;DHT22;880;52.452;8.656;2023-08-06T05:15:39;14.60;99.90
1766;DHT22;880;52.452;8.656;2023-08-06T05:18:09;14.60;99.90
1766;DHT22;880;52.452;8.656;2023-08-06T05:20:37;14.70;99.90
1766;DHT22;880;52.452;8.656;2023-08-06T05:23:05;14.70;99.90
1766;DHT22;880;52.452;8.656;2023-08-06T05:25:34;14.70;99.90
1766;DHT22;880;52.452;8.656;2023-08-06T05:28:02;14.70;99.90
1766;DHT22;880;52.452;8.656;2023-08-06T05:30:29;14.70;99.90
1766;DHT22;880;52.452;8.656;2023-08-06T05:32:56;14.70;99.90
1766;DHT22;880;52.452;8.656;2023-08-06T05:35:26;14.70;99.90
1766;DHT22;880;52.452;8.656;2023-08-06T05:37:53;14.80;99.90
1766;DHT22;880;52.452;8.656;2023-08-06T05:40:20;14.80;99.90
1766;DHT22;880;52.452;8.656;2023-08-06T05:42:47;14.80;99.90
1766;DHT22;880;52.452;8.656;2023-08-06T05:45:14;15.00;99.90
1766;DHT22;880;52.452;8.656;2023-08-06T05:47:41;15.10;99.90
1766;DHT22;880;52.452;8.656;2023-08-06T05:50:08;15.20;99.90
1766;DHT22;880;52.452;8.656;2023-08-06T05:52:36;15.30;99.90
1766;DHT22;880;52.452;8.656;2023-08-06T05:55:03;15.40;99.90
1766;DHT22;880;52.452;8.656;2023-08-06T05:57:30;15.50;99.90
1766;DHT22;880;52.452;8.656;2023-08-06T05:59:57;15.50;99.90
1766;DHT22;880;52.452;8.656;2023-08-06T06:02:24;15.50;99.90
1766;DHT22;880;52.452;8.656;2023-08-06T06:04:51;15.60;99.90
1766;DHT22;880;52.452;8.656;2023-08-06T06:07:18;15.70;99.90
1766;DHT22;880;52.452;8.656;2023-08-06T06:09:45;15.90;99.90
1766;DHT22;880;52.452;8.656;2023-08-06T06:12:12;16.00;99.90
1766;DHT22;880;52.452;8.656;2023-08-06T06:14:39;16.10;99.90
1766;DHT22;880;52.452;8.656;2023-08-06T06:17:06;16.20;99.90
1766;DHT22;880;52.452;8.656;2023-08-06T06:19:33;16.20;99.90
1766;DHT22;880;52.452;8.656;2023-08-06T06:22:00;16.10;99.90
1766;DHT22;880;52.452;8.656;2023-08-06T06:24:27;16.00;99.90
1766;DHT22;880;52.452;8.656;2023-08-06T06:26:54;16.10;99.90
1766;DHT22;880;52.452;8.656;2023-08-06T06:29:21;16.20;99.90
1766;DHT22;880;52.452;8.656;2023-08-06T06:31:48;16.30;99.90
1766;DHT22;880;52.452;8.656;2023-08-06T06:34:15;16.40;99.90
1766;DHT22;880;52.452;8.656;2023-08-06T06:36:42;16.40;99.90
1766;DHT22;880;52.452;8.656;2023-08-06T06:39:09;16.40;99.90
1766;DHT22;880;52.452;8.656;2023-08-06T06:41:36;16.40;99.90
1766;DHT22;880;52.452;8.656;2023-08-06T06:44:14;16.40;99.90
1766;DHT22;880;52.452;8.656;2023-08-06T06:46:41;16.30;99.90
1766;DHT22;880;52.452;8.656;2023-08-06T06:49:08;16.30;99.90
1766;DHT22;880;52.452;8.656;2023-08-06T06:51:35;16.30;99.90
1766;DHT22;880;52.452;8.656;2023-08-06T06:54:05;16.40;99.90
1766;DHT22;880;52.452;8.656;2023-08-06T06:56:32;16.50;99.90
1766;DHT22;880;52.452;8.656;2023-08-06T06:58:59;16.50;99.90
1766;DHT22;880;52.452;8.656;2023-08-06T07:01:26;16.60;99.90
1766;DHT22;880;52.452;8.656;2023-08-06T07:03:53;16.60;99.90
1766;DHT22;880;52.452;8.656;2023-08-06T07:06:20;16.70;99.90
1766;DHT22;880;52.452;8.656;2023-08-06T07:08:47;16.70;99.90
1766;DHT22;880;52.452;8.656;2023-08-06T07:11:14;16.70;99.90
1766;DHT22;880;52.452;8.656;2023-08-06T07:13:41;16.80;99.90
1766;DHT22;880;52.452;8.656;2023-08-06T07:16:08;16.90;99.90
1766;DHT22;880;52.452;8.656;2023-08-06T07:18:37;17.20;99.90
1766;DHT22;880;52.452;8.656;2023-08-06T07:21:04;17.40;99.90
1766;DHT22;880;52.452;8.656;2023-08-06T07:23:31;17.60;99.90
1766;DHT22;880;52.452;8.656;2023-08-06T07:25:58;17.90;99.90
1766;DHT22;880;52.452;8.656;2023-08-06T07:28:25;18.10;99.90
1766;DHT22;880;52.452;8.656;2023-08-06T07:30:53;18.20;99.90
1766;DHT22;880;52.452;8.656;2023-08-06T07:33:20;18.40;99.90
1766;DHT22;880;52.452;8.656;2023-08-06T07:35:47;18.50;99.90
1766;DHT22;880;52.452;8.656;2023-08-06T07:38:14;18.80;99.90
1766;DHT22;880;52.452;8.656;2023-08-06T07:40:41;19.00;99.90
1766;DHT22;880;52.452;8.656;2023-08-06T07:43:08;19.20;99.90
1766;DHT22;880;52.452;8.656;2023-08-06T07:45:36;19.30;99.90
1766;DHT22;880;52.452;8.656;2023-08-06T07:48:03;19.40;99.90
1766;DHT22;880;52.452;8.656;2023-08-06T07:50:31;19.60;99.90
1766;DHT22;880;52.452;8.656;2023-08-06T07:52:58;19.60;99.90
1766;DHT22;880;52.452;8.656;2023-08-06T07:55:25;19.60;99.90
1766;DHT22;880;52.452;8.656;2023-08-06T07:57:54;19.80;99.90
1766;DHT22;880;52.452;8.656;2023-08-06T08:00:21;20.10;99.90
1766;DHT22;880;52.452;8.656;2023-08-06T08:02:48;20.30;99.90
1766;DHT22;880;52.452;8.656;2023-08-06T08:05:15;20.60;99.90
1766;DHT22;880;52.452;8.656;2023-08-06T08:07:42;20.60;99.90
1766;DHT22;880;52.452;8.656;2023-08-06T08:10:10;20.60;99.90
1766;DHT22;880;52.452;8.656;2023-08-06T08:12:38;20.80;99.90
1766;DHT22;880;52.452;8.656;2023-08-06T08:15:05;21.00;99.90
1766;DHT22;880;52.452;8.656;2023-08-06T08:17:33;21.20;99.90
1766;DHT22;880;52.452;8.656;2023-08-06T08:20:01;21.40;99.90
1766;DHT22;880;52.452;8.656;2023-08-06T08:22:29;21.20;99.90
1766;DHT22;880;52.452;8.656;2023-08-06T08:24:55;20.80;99.90
1766;DHT22;880;52.452;8.656;2023-08-06T08:27:22;20.90;99.90
1766;DHT22;880;52.452;8.656;2023-08-06T08:29:49;21.20;99.90
1766;DHT22;880;52.452;8.656;2023-08-06T08:32:16;21.50;99.90
1766;DHT22;880;52.452;8.656;2023-08-06T08:34:43;21.40;99.90
1766;DHT22;880;52.452;8.656;2023-08-06T08:37:11;21.40;99.90
1766;DHT22;880;52.452;8.656;2023-08-06T08:39:39;21.30;99.90
1766;DHT22;880;52.452;8.656;2023-08-06T08:42:06;21.40;99.90
1766;DHT22;880;52.452;8.656;2023-08-06T08:44:34;21.50;99.90
1766;DHT22;880;52.452;8.656;2023-08-06T08:47:06;21.60;99.90
1766;DHT22;880;52.452;8.656;2023-08-06T08:49:35;21.60;99.90
1766;DHT22;880;52.452;8.656;2023-08-06T08:52:04;21.70;99.90
1766;DHT22;880;52.452;8.656;2023-08-06T08:54:38;21.70;99.90
1766;DHT22;880;52.452;8.656;2023-08-06T08:57:05;21.60;99.90
1766;DHT22;880;52.452;8.656;2023-08-06T08:59:35;21.50;99.90
1766;DHT22;880;52.452;8.656;2023-08-06T09:02:02;21.30;99.90
1766;DHT22;880;52.452;8.656;2023-08-06T09:04:31;21.20;99.90
1766;DHT22;880;52.452;8.656;2023-08-06T09:07:01;21.40;99.90
1766;DHT22;880;52.452;8.656;2023-08-06T09:09:35;21.70;99.90
1766;DHT22;880;52.452;8.656;2023-08-06T09:12:13;21.90;99.90
1766;DHT22;880;52.452;8.656;2023-08-06T09:14:41;22.10;99.90
1766;DHT22;880;52.452;8.656;2023-08-06T09:17:09;22.00;99.90
1766;DHT22;880;52.452;8.656;2023-08-06T09:19:43;22.20;99.90
1766;DHT22;880;52.452;8.656;2023-08-06T09:22:14;22.10;99.90
1766;DHT22;880;52.452;8.656;2023-08-06T09:24:42;22.10;99.90
1766;DHT22;880;52.452;8.656;2023-08-06T09:27:13;22.10;99.90
1766;DHT22;880;52.452;8.656;2023-08-06T09:29:42;21.90;99.90
1766;DHT22;880;52.452;8.656;2023-08-06T09:32:10;21.80;99.90
1766;DHT22;880;52.452;8.656;2023-08-06T09:34:39;21.90;99.90
1766;DHT22;880;52.452;8.656;2023-08-06T09:37:09;22.10;99.90
1766;DHT22;880;52.452;8.656;2023-08-06T09:39:40;22.30;99.90
1766;DHT22;880;52.452;8.656;2023-08-06T09:42:15;22.40;99.90
1766;DHT22;880;52.452;8.656;2023-08-06T09:44:42;22.60;99.90
1766;DHT22;880;52.452;8.656;2023-08-06T09:47:09;22.90;99.90
1766;DHT22;880;52.452;8.656;2023-08-06T09:52:03;23.40;99.90
1766;DHT22;880;52.452;8.656;2023-08-06T09:54:32;23.50;99.90
1766;DHT22;880;52.452;8.656;2023-08-06T09:57:02;23.60;99.90
1766;DHT22;880;52.452;8.656;2023-08-06T09:59:30;23.70;99.90
1766;DHT22;880;52.452;8.656;2023-08-06T10:01:59;23.80;99.90
1766;DHT22;880;52.452;8.656;2023-08-06T10:04:26;23.90;99.90
1766;DHT22;880;52.452;8.656;2023-08-06T10:07:06;23.70;99.90
1766;DHT22;880;52.452;8.656;2023-08-06T10:09:33;23.60;99.90
1766;DHT22;880;52.452;8.656;2023-08-06T10:12:00;23.60;99.90
1766;DHT22;880;52.452;8.656;2023-08-06T10:14:35;23.50;99.90
1766;DHT22;880;52.452;8.656;2023-08-06T10:17:04;23.40;99.90
1766;DHT22;880;52.452;8.656;2023-08-06T10:19:32;23.40;99.90
1766;DHT22;880;52.452;8.656;2023-08-06T10:22:15;23.60;99.90
1766;DHT22;880;52.452;8.656;2023-08-06T10:27:23;24.30;99.90
1766;DHT22;880;52.452;8.656;2023-08-06T10:29:54;24.40;99.90
1766;DHT22;880;52.452;8.656;2023-08-06T10:32:47;24.30;99.90
1766;DHT22;880;52.452;8.656;2023-08-06T10:35:28;24.40;99.90
1766;DHT22;880;52.452;8.656;2023-08-06T10:38:04;24.40;99.90
1766;DHT22;880;52.452;8.656;2023-08-06T10:40:32;24.70;99.90
1766;DHT22;880;52.452;8.656;2023-08-06T10:43:01;25.30;99.90
1766;DHT22;880;52.452;8.656;2023-08-06T10:45:29;25.60;99.90
1766;DHT22;880;52.452;8.656;2023-08-06T10:47:57;25.70;99.90
1766;DHT22;880;52.452;8.656;2023-08-06T10:50:25;25.90;99.90
1766;DHT22;880;52.452;8.656;2023-08-06T10:52:53;25.90;99.90
1766;DHT22;880;52.452;8.656;2023-08-06T10:55:28;25.90;99.90
1766;DHT22;880;52.452;8.656;2023-08-06T10:57:56;25.90;99.90
1766;DHT22;880;52.452;8.656;2023-08-06T11:00:24;25.90;99.90
1766;DHT22;880;52.452;8.656;2023-08-06T11:02:53;25.60;99.90
1766;DHT22;880;52.452;8.656;2023-08-06T11:05:22;25.70;99.90
1766;DHT22;880;52.452;8.656;2023-08-06T11:07:49;26.00;99.90
1766;DHT22;880;52.452;8.656;2023-08-06T11:10:17;26.30;99.90
1766;DHT22;880;52.452;8.656;2023-08-06T11:12:44;26.60;99.90
1766;DHT22;880;52.452;8.656;2023-08-06T11:15:12;26.60;99.90
1766;DHT22;880;52.452;8.656;2023-08-06T11:17:40;26.30;99.90
1766;DHT22;880;52.452;8.656;2023-08-06T11:20:08;26.10;99.90
1766;DHT22;880;52.452;8.656;2023-08-06T11:22:36;25.90;99.90
1766;DHT22;880;52.452;8.656;2023-08-06T11:25:07;25.80;99.90
1766;DHT22;880;52.452;8.656;2023-08-06T11:27:34;25.90;99.90
1766;DHT22;880;52.452;8.656;2023-08-06T11:30:01;26.10;99.90
1766;DHT22;880;52.452;8.656;2023-08-06T11:32:28;26.50;99.90
1766;DHT22;880;52.452;8.656;2023-08-06T11:34:56;26.80;99.90
1766;DHT22;880;52.452;8.656;2023-08-06T11:37:23;27.00;99.90
1766;DHT22;880;52.452;8.656;2023-08-06T11:39:52;27.00;99.90
1766;DHT22;880;52.452;8.656;2023-08-06T11:42:19;26.90;99.90
1766;DHT22;880;52.452;8.656;2023-08-06T11:44:47;26.70;99.90
1766;DHT22;880;52.452;8.656;2023-08-06T11:47:16;26.40;99.90
1766;DHT22;880;52.452;8.656;2023-08-06T11:49:48;25.80;99.90
1766;DHT22;880;52.452;8.656;2023-08-06T11:52:21;25.60;99.90
1766;DHT22;880;52.452;8.656;2023-08-06T11:55:02;25.20;99.90
1766;DHT22;880;52.452;8.656;2023-08-06T11:57:33;25.00;99.90
1766;DHT22;880;52.452;8.656;2023-08-06T12:00:09;24.80;99.90
1766;DHT22;880;52.452;8.656;2023-08-06T12:02:42;24.70;99.90
1766;DHT22;880;52.452;8.656;2023-08-06T12:05:12;24.60;99.90
1766;DHT22;880;52.452;8.656;2023-08-06T12:07:45;24.70;99.90
1766;DHT22;880;52.452;8.656;2023-08-06T12:10:17;24.80;99.90
1766;DHT22;880;52.452;8.656;2023-08-06T12:12:48;24.90;99.90
1766;DHT22;880;52.452;8.656;2023-08-06T12:15:16;25.00;99.90
1766;DHT22;880;52.452;8.656;2023-08-06T12:17:44;25.10;99.90
1766;DHT22;880;52.452;8.656;2023-08-06T12:20:11;25.20;99.90
1766;DHT22;880;52.452;8.656;2023-08-06T12:22:38;25.30;99.90
1766;DHT22;880;52.452;8.656;2023-08-06T12:25:08;25.10;99.90
1766;DHT22;880;52.452;8.656;2023-08-06T12:27:40;24.80;99.90
1766;DHT22;880;52.452;8.656;2023-08-06T12:30:09;24.60;99.90
1766;DHT22;880;52.452;8.656;2023-08-06T12:32:37;24.60;99.90
1766;DHT22;880;52.452;8.656;2023-08-06T12:35:05;24.60;99.90
1766;DHT22;880;52.452;8.656;2023-08-06T12:37:34;24.60;99.90
1766;DHT22;880;52.452;8.656;2023-08-06T12:40:02;24.60;99.90
1766;DHT22;880;52.452;8.656;2023-08-06T12:42:53;24.50;99.90
1766;DHT22;880;52.452;8.656;2023-08-06T12:45:20;24.40;99.90
1766;DHT22;880;52.452;8.656;2023-08-06T12:47:48;24.30;99.90
1766;DHT22;880;52.452;8.656;2023-08-06T12:50:16;24.20;99.90
1766;DHT22;880;52.452;8.656;2023-08-06T12:52:44;24.10;99.90
1766;DHT22;880;52.452;8.656;2023-08-06T12:55:12;23.80;99.90
1766;DHT22;880;52.452;8.656;2023-08-06T12:57:39;23.60;99.90
1766;DHT22;880;52.452;8.656;2023-08-06T13:00:23;23.50;99.90
1766;DHT22;880;52.452;8.656;2023-08-06T13:02:51;23.40;99.90
1766;DHT22;880;52.452;8.656;2023-08-06T13:05:18;23.50;99.90
1766;DHT22;880;52.452;8.656;2023-08-06T13:07:46;23.50;99.90
1766;DHT22;880;52.452;8.656;2023-08-06T13:10:13;23.40;99.90
1766;DHT22;880;52.452;8.656;2023-08-06T13:12:40;23.20;99.90
1766;DHT22;880;52.452;8.656;2023-08-06T13:15:07;23.20;99.90
1766;DHT22;880;52.452;8.656;2023-08-06T13:17:35;23.30;99.90
1766;DHT22;880;52.452;8.656;2023-08-06T13:20:02;23.20;99.90
1766;DHT22;880;52.452;8.656;2023-08-06T13:22:30;23.10;99.90
1766;DHT22;880;52.452;8.656;2023-08-06T13:24:57;23.10;99.90
1766;DHT22;880;52.452;8.656;2023-08-06T13:27:24;23.10;99.90
1766;DHT22;880;52.452;8.656;2023-08-06T13:29:51;23.20;99.90
1766;DHT22;880;52.452;8.656;2023-08-06T13:32:18;23.20;99.90
1766;DHT22;880;52.452;8.656;2023-08-06T13:34:45;23.20;99.90
1766;DHT22;880;52.452;8.656;2023-08-06T13:37:12;23.30;99.90
1766;DHT22;880;52.452;8.656;2023-08-06T13:39:38;23.40;99.90
1766;DHT22;880;52.452;8.656;2023-08-06T13:42:07;23.50;99.90
1766;DHT22;880;52.452;8.656;2023-08-06T13:44:34;23.50;99.90
1766;DHT22;880;52.452;8.656;2023-08-06T13:47:02;23.50;99.90
1766;DHT22;880;52.452;8.656;2023-08-06T13:49:29;23.40;99.90
1766;DHT22;880;52.452;8.656;2023-08-06T13:51:57;23.40;99.90
1766;DHT22;880;52.452;8.656;2023-08-06T13:54:41;23.40;99.90
1766;DHT22;880;52.452;8.656;2023-08-06T13:57:08;23.00;99.90
1766;DHT22;880;52.452;8.656;2023-08-06T13:59:35;22.80;99.90
1766;DHT22;880;52.452;8.656;2023-08-06T14:02:02;22.70;99.90
1766;DHT22;880;52.452;8.656;2023-08-06T14:04:30;22.70;99.90
1766;DHT22;880;52.452;8.656;2023-08-06T14:06:57;22.50;99.90
1766;DHT22;880;52.452;8.656;2023-08-06T14:09:24;22.50;99.90
1766;DHT22;880;52.452;8.656;2023-08-06T14:11:51;22.50;99.90
1766;DHT22;880;52.452;8.656;2023-08-06T14:14:18;22.60;99.90
1766;DHT22;880;52.452;8.656;2023-08-06T14:16:45;22.60;99.90
1766;DHT22;880;52.452;8.656;2023-08-06T14:19:12;22.70;99.90
1766;DHT22;880;52.452;8.656;2023-08-06T14:21:39;22.80;99.90
1766;DHT22;880;52.452;8.656;2023-08-06T14:24:06;22.70;99.90
1766;DHT22;880;52.452;8.656;2023-08-06T14:26:33;22.60;99.90
1766;DHT22;880;52.452;8.656;2023-08-06T14:29:01;22.60;99.90
1766;DHT22;880;52.452;8.656;2023-08-06T14:31:28;22.50;99.90
1766;DHT22;880;52.452;8.656;2023-08-06T14:33:56;22.30;99.90
1766;DHT22;880;52.452;8.656;2023-08-06T14:36:23;22.20;99.90
1766;DHT22;880;52.452;8.656;2023-08-06T14:38:50;21.90;99.90
1766;DHT22;880;52.452;8.656;2023-08-06T14:41:26;21.80;99.90
1766;DHT22;880;52.452;8.656;2023-08-06T14:43:53;21.80;99.90
1766;DHT22;880;52.452;8.656;2023-08-06T14:46:21;21.90;99.90
1766;DHT22;880;52.452;8.656;2023-08-06T14:48:48;21.90;99.90
1766;DHT22;880;52.452;8.656;2023-08-06T14:51:15;21.90;99.90
1766;DHT22;880;52.452;8.656;2023-08-06T14:53:42;21.90;99.90
1766;DHT22;880;52.452;8.656;2023-08-06T14:56:09;21.80;99.90
1766;DHT22;880;52.452;8.656;2023-08-06T14:58:36;21.80;99.90
1766;DHT22;880;52.452;8.656;2023-08-06T15:01:03;21.80;99.90
1766;DHT22;880;52.452;8.656;2023-08-06T15:03:30;21.80;99.90
1766;DHT22;880;52.452;8.656;2023-08-06T15:05:58;21.70;99.90
1766;DHT22;880;52.452;8.656;2023-08-06T15:08:25;21.60;99.90
1766;DHT22;880;52.452;8.656;2023-08-06T15:10:53;21.60;99.90
1766;DHT22;880;52.452;8.656;2023-08-06T15:13:20;21.50;99.90
1766;DHT22;880;52.452;8.656;2023-08-06T15:15:49;21.40;99.90
1766;DHT22;880;52.452;8.656;2023-08-06T15:18:16;21.20;99.90
1766;DHT22;880;52.452;8.656;2023-08-06T15:20:43;21.20;99.90
1766;DHT22;880;52.452;8.656;2023-08-06T15:23:10;21.00;99.90
1766;DHT22;880;52.452;8.656;2023-08-06T15:25:37;20.90;99.90
1766;DHT22;880;52.452;8.656;2023-08-06T15:28:04;20.70;99.90
1766;DHT22;880;52.452;8.656;2023-08-06T15:30:32;20.50;99.90
1766;DHT22;880;52.452;8.656;2023-08-06T15:32:59;20.30;99.90
1766;DHT22;880;52.452;8.656;2023-08-06T15:35:28;20.20;99.90
1766;DHT22;880;52.452;8.656;2023-08-06T15:37:55;20.00;99.90
1766;DHT22;880;52.452;8.656;2023-08-06T15:40:22;19.70;99.90
1766;DHT22;880;52.452;8.656;2023-08-06T15:42:49;19.60;99.90
1766;DHT22;880;52.452;8.656;2023-08-06T15:45:16;19.50;99.90
1766;DHT22;880;52.452;8.656;2023-08-06T15:47:44;19.50;99.90
1766;DHT22;880;52.452;8.656;2023-08-06T15:50:11;19.60;99.90
1766;DHT22;880;52.452;8.656;2023-08-06T15:52:38;19.50;99.90
1766;DHT22;880;52.452;8.656;2023-08-06T15:55:06;19.50;99.90
1766;DHT22;880;52.452;8.656;2023-08-06T15:57:34;19.60;99.90
1766;DHT22;880;52.452;8.656;2023-08-06T16:00:03;19.70;99.90
1766;DHT22;880;52.452;8.656;2023-08-06T16:02:42;19.80;99.90
1766;DHT22;880;52.452;8.656;2023-08-06T16:05:09;19.80;99.90
1766;DHT22;880;52.452;8.656;2023-08-06T16:07:36;19.70;99.90
1766;DHT22;880;52.452;8.656;2023-08-06T16:10:03;19.70;99.90
1766;DHT22;880;52.452;8.656;2023-08-06T16:12:31;19.80;99.90
1766;DHT22;880;52.452;8.656;2023-08-06T16:14:58;19.90;99.90
1766;DHT22;880;52.452;8.656;2023-08-06T16:17:25;20.00;99.90
1766;DHT22;880;52.452;8.656;2023-08-06T16:19:52;20.20;99.90
1766;DHT22;880;52.452;8.656;2023-08-06T16:22:19;20.20;99.90
1766;DHT22;880;52.452;8.656;2023-08-06T16:24:46;20.10;99.90
1766;DHT22;880;52.452;8.656;2023-08-06T16:27:15;20.20;99.90
1766;DHT22;880;52.452;8.656;2023-08-06T16:29:42;20.10;99.90
1766;DHT22;880;52.452;8.656;2023-08-06T16:32:09;20.20;99.90
1766;DHT22;880;52.452;8.656;2023-08-06T16:34:37;20.10;99.90